createdAt,value
2023-03-06T00:00:14.537Z,1.1
2023-03-06T00:01:15.523Z,1.2
2023-03-06T00:02:16.501Z,1.2
2023-03-06T00:03:17.571Z,1.2
2023-03-06T00:04:18.544Z,1.2
2023-03-06T00:05:19.578Z,1.1
2023-03-06T00:06:20.467Z,1.1
2023-03-06T00:07:21.524Z,1
2023-03-06T00:08:22.523Z,1
2023-03-06T00:09:23.456Z,1
2023-03-06T00:10:24.504Z,1
2023-03-06T00:11:25.545Z,0.9
2023-03-06T00:12:26.524Z,0.9
2023-03-06T00:13:27.564Z,0.8
2023-03-06T00:14:28.523Z,0.7
2023-03-06T00:15:29.608Z,0.6
2023-03-06T00:16:30.560Z,0.7
2023-03-06T00:17:31.525Z,0.7
2023-03-06T00:18:32.505Z,0.8
2023-03-06T00:19:33.542Z,0.8
2023-03-06T00:20:34.509Z,0.8
2023-03-06T00:21:35.528Z,0.8
2023-03-06T00:22:36.581Z,0.8
2023-03-06T00:23:37.506Z,0.8
2023-03-06T00:24:38.526Z,0.8
2023-03-06T00:25:39.544Z,0.9
2023-03-06T00:26:40.506Z,0.9
2023-03-06T00:27:41.613Z,0.9
2023-03-06T00:28:42.524Z,0.9
2023-03-06T00:29:43.523Z,0.8
2023-03-06T00:30:44.557Z,0.7
2023-03-06T00:31:45.587Z,0.7
2023-03-06T00:32:46.544Z,0.8
2023-03-06T00:33:47.538Z,0.8
2023-03-06T00:34:48.492Z,0.8
2023-03-06T00:35:49.633Z,0.8
2023-03-06T00:36:50.509Z,0.8
2023-03-06T00:37:51.550Z,0.8
2023-03-06T00:38:52.525Z,0.8
2023-03-06T00:39:53.515Z,0.8
2023-03-06T00:40:54.540Z,0.8
2023-03-06T00:41:55.558Z,0.8
2023-03-06T00:42:56.540Z,0.8
2023-03-06T00:43:57.509Z,0.7
2023-03-06T00:44:58.541Z,0.6
2023-03-06T00:45:59.686Z,0.7
2023-03-06T00:47:00.532Z,0.7
2023-03-06T00:48:01.608Z,0.7
2023-03-06T00:49:02.531Z,0.7
2023-03-06T00:50:03.578Z,0.8
2023-03-06T00:51:04.517Z,0.8
2023-03-06T00:52:05.560Z,0.9
2023-03-06T00:53:06.514Z,0.9
2023-03-06T00:54:07.561Z,1
2023-03-06T00:55:08.525Z,1
2023-03-06T00:56:09.585Z,1
2023-03-06T00:57:10.512Z,1
2023-03-06T00:58:11.512Z,1.1
2023-03-06T00:59:12.524Z,1.1
2023-03-06T01:00:13.544Z,1.1
2023-03-06T01:01:14.591Z,1.1
2023-03-06T01:02:15.544Z,1.1
2023-03-06T01:03:16.524Z,1.1
2023-03-06T01:04:17.563Z,1.1
2023-03-06T01:05:18.538Z,1
2023-03-06T01:06:19.488Z,1
2023-03-06T01:07:20.480Z,1
2023-03-06T01:08:21.501Z,1.1
2023-03-06T01:09:22.557Z,1.2
2023-03-06T01:10:23.543Z,1.1
2023-03-06T01:11:24.577Z,1.1
2023-03-06T01:12:25.516Z,1.1
2023-03-06T01:13:26.577Z,1.1
2023-03-06T01:14:27.559Z,1.2
2023-03-06T01:15:28.535Z,1.2
2023-03-06T01:16:29.630Z,1.1
2023-03-06T01:17:30.575Z,1.1
2023-03-06T01:18:31.529Z,1.1
2023-03-06T01:19:32.538Z,1.1
2023-03-06T01:20:33.575Z,1
2023-03-06T01:21:34.591Z,1
2023-03-06T01:22:35.576Z,1
2023-03-06T01:23:36.577Z,1.1
2023-03-06T01:24:37.523Z,1.1
2023-03-06T01:25:38.543Z,1
2023-03-06T01:26:39.515Z,1
2023-03-06T01:27:40.521Z,1
2023-03-06T01:28:41.514Z,0.9
2023-03-06T01:29:42.518Z,0.8
2023-03-06T01:30:43.556Z,0.7
2023-03-06T01:31:44.637Z,0.7
2023-03-06T01:32:45.604Z,0.7
2023-03-06T01:33:46.533Z,0.8
2023-03-06T01:34:47.512Z,0.7
2023-03-06T01:35:48.581Z,0.6
2023-03-06T01:36:49.555Z,0.6
2023-03-06T01:37:50.635Z,0.5
2023-03-06T01:38:51.520Z,0.5
2023-03-06T01:39:52.566Z,0.6
2023-03-06T01:40:53.549Z,0.6
2023-03-06T01:41:54.556Z,0.6
2023-03-06T01:42:55.578Z,0.5
2023-03-06T01:43:56.587Z,0.5
2023-03-06T01:44:57.577Z,0.5
2023-03-06T01:45:58.582Z,0.4
2023-03-06T01:46:59.536Z,0.4
2023-03-06T01:48:00.548Z,0.5
2023-03-06T01:49:01.619Z,0.5
2023-03-06T01:50:02.552Z,0.5
2023-03-06T01:51:03.619Z,0.3
2023-03-06T01:52:04.562Z,0.3
2023-03-06T01:53:05.560Z,0.3
2023-03-06T01:54:06.660Z,0.2
2023-03-06T01:55:07.588Z,0.1
2023-03-06T01:56:08.541Z,0.2
2023-03-06T01:57:09.521Z,0.2
2023-03-06T01:58:10.541Z,0.2
2023-03-06T01:59:11.551Z,0.3
2023-03-06T02:00:12.640Z,0.4
2023-03-06T02:01:13.661Z,0.4
2023-03-06T02:02:14.726Z,0.4
2023-03-06T02:06:29.617Z,0.2
2023-03-06T02:07:30.535Z,0.1
2023-03-06T02:08:31.547Z,0.2
2023-03-06T02:09:32.515Z,0.3
2023-03-06T02:10:33.625Z,0.3
2023-03-06T02:11:34.610Z,0.4
2023-03-06T02:12:35.576Z,0.4
2023-03-06T02:13:36.596Z,0.5
2023-03-06T02:14:37.599Z,0.5
2023-03-06T02:15:38.667Z,0.6
2023-03-06T02:16:39.640Z,0.6
2023-03-06T02:17:40.583Z,0.6
2023-03-06T02:18:41.555Z,0.7
2023-03-06T02:19:42.602Z,0.8
2023-03-06T02:20:43.622Z,0.9
2023-03-06T02:21:44.587Z,1
2023-03-06T02:22:45.565Z,1
2023-03-06T02:23:46.604Z,1
2023-03-06T02:24:47.577Z,1
2023-03-06T02:25:48.621Z,1
2023-03-06T02:26:49.624Z,1.1
2023-03-06T02:27:50.599Z,1
2023-03-06T02:28:51.619Z,0.9
2023-03-06T02:29:52.630Z,0.9
2023-03-06T02:30:53.679Z,0.9
2023-03-06T02:31:54.578Z,0.9
2023-03-06T02:32:55.607Z,0.9
2023-03-06T02:33:56.568Z,0.9
2023-03-06T02:34:57.618Z,0.9
2023-03-06T02:35:58.661Z,0.9
2023-03-06T02:36:59.633Z,0.9
2023-03-06T02:38:00.570Z,0.8
2023-03-06T02:39:01.582Z,0.7
2023-03-06T02:40:02.621Z,0.6
2023-03-06T02:41:03.608Z,0.6
2023-03-06T02:42:04.619Z,0.6
2023-03-06T02:43:05.580Z,0.6
2023-03-06T02:44:06.578Z,0.5
2023-03-06T02:45:07.574Z,0.6
2023-03-06T02:46:08.726Z,0.6
2023-03-06T02:47:09.618Z,0.7
2023-03-06T02:48:10.600Z,0.8
2023-03-06T02:49:11.646Z,1
2023-03-06T02:50:12.565Z,1.1
2023-03-06T02:51:13.614Z,1
2023-03-06T02:53:37.639Z,1
2023-03-06T02:54:38.593Z,0.9
2023-03-06T02:55:39.594Z,0.9
2023-03-06T02:56:40.637Z,0.9
2023-03-06T02:57:41.572Z,1
2023-03-06T02:58:42.633Z,1
2023-03-06T02:59:43.609Z,1
2023-03-06T03:00:47.634Z,1.1
2023-03-06T03:01:48.665Z,1.1
2023-03-06T03:02:49.632Z,1.2
2023-03-06T03:03:50.647Z,1.4
2023-03-06T03:04:51.671Z,1.5
2023-03-06T03:05:52.601Z,1.5
2023-03-06T03:06:53.606Z,1.5
2023-03-06T03:07:54.638Z,1.4
2023-03-06T03:08:55.595Z,1.5
2023-03-06T03:09:56.577Z,1.6
2023-03-06T03:10:57.622Z,1.7
2023-03-06T03:11:58.611Z,1.6
2023-03-06T03:12:59.611Z,1.6
2023-03-06T03:14:00.585Z,1.6
2023-03-06T03:15:01.605Z,1.7
2023-03-06T03:16:02.654Z,1.8
2023-03-06T03:17:03.630Z,1.8
2023-03-06T03:18:04.610Z,1.8
2023-03-06T03:19:05.663Z,1.8
2023-03-06T03:20:06.570Z,1.8
2023-03-06T03:21:07.633Z,1.7
2023-03-06T03:22:08.601Z,1.7
2023-03-06T03:23:09.656Z,1.6
2023-03-06T03:24:10.624Z,1.6
2023-03-06T03:25:11.737Z,1.4
2023-03-06T03:26:12.595Z,1.2
2023-03-06T03:27:13.617Z,1.2
2023-03-06T03:28:14.581Z,1.1
2023-03-06T03:29:15.595Z,1.2
2023-03-06T03:30:16.575Z,1.3
2023-03-06T03:31:17.689Z,1.4
2023-03-06T03:32:18.625Z,1.5
2023-03-06T03:33:19.655Z,1.4
2023-03-06T03:34:20.640Z,1.5
2023-03-06T03:35:21.689Z,1.5
2023-03-06T03:36:22.637Z,1.6
2023-03-06T03:37:23.617Z,1.6
2023-03-06T03:38:24.656Z,1.5
2023-03-06T03:39:25.577Z,1.4
2023-03-06T03:40:26.608Z,1.4
2023-03-06T03:41:27.663Z,1.4
2023-03-06T03:42:28.600Z,1.4
2023-03-06T03:43:29.645Z,1.4
2023-03-06T03:44:30.657Z,1.5
2023-03-06T03:45:31.641Z,1.4
2023-03-06T03:46:32.676Z,1.3
2023-03-06T03:47:33.598Z,1.4
2023-03-06T03:48:34.647Z,1.4
2023-03-06T03:49:35.672Z,1.3
2023-03-06T03:50:36.633Z,1.3
2023-03-06T03:51:37.626Z,1.3
2023-03-06T03:52:38.618Z,1.4
2023-03-06T03:53:39.630Z,1.4
2023-03-06T03:54:40.635Z,1.4
2023-03-06T03:55:41.639Z,1.3
2023-03-06T03:56:42.636Z,1.2
2023-03-06T03:57:43.675Z,1
2023-03-06T03:58:44.603Z,1.1
2023-03-06T03:59:45.621Z,1
2023-03-06T04:00:46.662Z,1
2023-03-06T04:01:47.694Z,1
2023-03-06T04:02:48.655Z,0.9
2023-03-06T04:03:49.701Z,0.9
2023-03-06T04:04:50.675Z,0.9
2023-03-06T04:05:51.642Z,0.9
2023-03-06T04:06:52.617Z,0.9
2023-03-06T04:07:53.614Z,0.9
2023-03-06T04:08:54.677Z,0.9
2023-03-06T04:09:55.595Z,0.8
2023-03-06T04:10:56.638Z,0.8
2023-03-06T04:11:57.654Z,0.8
2023-03-06T04:12:58.655Z,0.9
2023-03-06T04:13:59.614Z,0.9
2023-03-06T04:15:00.638Z,0.7
2023-03-06T04:16:01.645Z,0.6
2023-03-06T04:17:02.619Z,0.7
2023-03-06T04:18:03.592Z,0.7
2023-03-06T04:19:04.633Z,0.7
2023-03-06T04:20:05.718Z,0.6
2023-03-06T04:21:06.676Z,0.6
2023-03-06T04:22:07.652Z,0.6
2023-03-06T04:23:08.613Z,0.6
2023-03-06T04:24:09.656Z,0.5
2023-03-06T04:25:10.602Z,0.5
2023-03-06T04:26:11.836Z,0.6
2023-03-06T04:27:13.634Z,0.6
2023-03-06T04:28:14.635Z,0.6
2023-03-06T04:29:15.634Z,0.7
2023-03-06T04:30:16.613Z,0.8
2023-03-06T04:31:17.711Z,0.9
2023-03-06T04:32:21.005Z,1
2023-03-06T04:33:19.615Z,1.1
2023-03-06T04:34:20.655Z,1.1
2023-03-06T04:35:21.672Z,1.1
2023-03-06T04:36:22.621Z,1.1
2023-03-06T04:37:23.637Z,1.2
2023-03-06T04:38:24.658Z,1.3
2023-03-06T04:39:25.636Z,1.3
2023-03-06T04:40:26.686Z,1.3
2023-03-06T04:41:27.658Z,1.3
2023-03-06T04:42:28.656Z,1.2
2023-03-06T04:43:29.641Z,1.1
2023-03-06T04:44:30.676Z,1
2023-03-06T04:45:31.695Z,0.9
2023-03-06T04:46:32.698Z,0.9
2023-03-06T04:47:33.685Z,0.9
2023-03-06T04:48:34.657Z,0.9
2023-03-06T04:49:35.636Z,0.9
2023-03-06T04:50:36.681Z,1
2023-03-06T04:51:37.664Z,1
2023-03-06T04:52:38.639Z,1
2023-03-06T04:53:39.659Z,0.9
2023-03-06T04:54:40.673Z,0.8
2023-03-06T04:55:41.660Z,0.9
2023-03-06T04:56:42.678Z,1
2023-03-06T04:57:43.637Z,1
2023-03-06T04:58:44.639Z,1.1
2023-03-06T04:59:45.697Z,1
2023-03-06T05:00:46.729Z,1
2023-03-06T05:01:47.716Z,0.8
2023-03-06T05:02:48.655Z,0.9
2023-03-06T05:03:49.653Z,1
2023-03-06T05:04:50.661Z,1.1
2023-03-06T05:05:51.681Z,1.2
2023-03-06T05:06:52.693Z,1.2
2023-03-06T05:07:53.676Z,1.2
2023-03-06T05:08:54.653Z,1.3
2023-03-06T05:09:55.694Z,1.3
2023-03-06T05:10:56.680Z,1.1
2023-03-06T05:11:57.660Z,1
2023-03-06T05:12:58.664Z,1
2023-03-06T05:13:59.636Z,1
2023-03-06T05:15:00.727Z,0.9
2023-03-06T05:16:01.610Z,1
2023-03-06T05:17:02.688Z,1.2
2023-03-06T05:18:03.631Z,1.1
2023-03-06T05:19:04.651Z,1.1
2023-03-06T05:20:05.655Z,1
2023-03-06T05:21:06.682Z,1
2023-03-06T05:22:07.651Z,1.1
2023-03-06T05:23:08.672Z,1.2
2023-03-06T05:24:09.679Z,1.3
2023-03-06T05:25:10.627Z,1.3
2023-03-06T05:26:11.930Z,1.2
2023-03-06T05:27:15.828Z,1.4
2023-03-06T05:28:14.656Z,1.5
2023-03-06T05:29:15.619Z,1.6
2023-03-06T05:30:16.694Z,1.6
2023-03-06T05:31:17.666Z,1.7
2023-03-06T05:32:18.666Z,1.7
2023-03-06T05:33:19.619Z,1.7
2023-03-06T05:34:20.669Z,1.7
2023-03-06T05:35:21.686Z,1.7
2023-03-06T05:36:22.685Z,1.8
2023-03-06T05:37:23.665Z,1.8
2023-03-06T05:38:24.681Z,1.8
2023-03-06T05:39:25.659Z,1.9
2023-03-06T05:40:26.657Z,1.9
2023-03-06T05:41:27.677Z,1.9
2023-03-06T05:42:28.807Z,1.9
2023-03-06T05:43:29.656Z,1.9
2023-03-06T05:44:30.695Z,1.8
2023-03-06T05:45:31.677Z,1.9
2023-03-06T05:46:32.696Z,1.9
2023-03-06T05:47:33.676Z,1.8
2023-03-06T05:48:34.617Z,1.8
2023-03-06T05:49:35.657Z,1.7
2023-03-06T05:50:36.724Z,1.6
2023-03-06T05:51:37.668Z,1.6
2023-03-06T05:52:38.658Z,1.6
2023-03-06T05:53:39.658Z,1.7
2023-03-06T05:54:40.674Z,1.8
2023-03-06T05:55:41.720Z,1.7
2023-03-06T05:56:42.963Z,1.7
2023-03-06T05:57:43.631Z,1.6
2023-03-06T05:58:44.650Z,1.7
2023-03-06T05:59:46.431Z,1.7
2023-03-06T06:00:46.742Z,1.7
2023-03-06T06:01:47.649Z,1.7
2023-03-06T06:02:48.677Z,1.7
2023-03-06T06:03:49.748Z,1.7
2023-03-06T06:04:50.654Z,1.7
2023-03-06T06:05:51.792Z,1.7
2023-03-06T06:06:52.738Z,1.6
2023-03-06T06:07:53.672Z,1.5
2023-03-06T06:08:54.673Z,1.4
2023-03-06T06:09:55.660Z,1.4
2023-03-06T06:10:56.693Z,1.4
2023-03-06T06:11:57.674Z,1.5
2023-03-06T06:12:58.696Z,1.5
2023-03-06T06:13:59.649Z,1.3
2023-03-06T06:15:00.686Z,1.4
2023-03-06T06:16:01.693Z,1.4
2023-03-06T06:17:02.634Z,1.5
2023-03-06T06:18:03.696Z,1.6
2023-03-06T06:19:04.646Z,1.7
2023-03-06T06:20:05.672Z,1.8
2023-03-06T06:21:06.693Z,1.8
2023-03-06T06:22:07.696Z,1.9
2023-03-06T06:23:08.754Z,1.8
2023-03-06T06:24:09.633Z,1.9
2023-03-06T06:25:10.681Z,1.9
2023-03-06T06:26:12.125Z,1.8
2023-03-06T06:27:13.673Z,1.7
2023-03-06T06:28:14.673Z,1.8
2023-03-06T06:29:15.705Z,1.8
2023-03-06T06:30:16.793Z,1.8
2023-03-06T06:31:22.523Z,1.9
2023-03-06T06:32:25.767Z,1.9
2023-03-06T06:33:26.714Z,2
2023-03-06T06:34:27.675Z,1.9
2023-03-06T06:35:28.675Z,2
2023-03-06T06:36:29.657Z,2
2023-03-06T06:37:30.705Z,1.9
2023-03-06T06:38:31.815Z,2
2023-03-06T06:39:32.684Z,1.9
2023-03-06T06:40:33.693Z,1.9
2023-03-06T06:42:09.922Z,2
2023-03-06T06:42:39.633Z,2
2023-03-06T06:43:36.733Z,1.9
2023-03-06T06:44:37.735Z,1.8
2023-03-06T06:45:38.793Z,1.9
2023-03-06T06:47:21.094Z,1.8
2023-03-06T06:47:40.673Z,1.8
2023-03-06T06:48:41.702Z,1.8
2023-03-06T06:49:42.722Z,1.9
2023-03-06T06:50:43.695Z,1.9
2023-03-06T06:51:44.697Z,2
2023-03-06T06:52:45.662Z,2
2023-03-06T06:53:46.739Z,2
2023-03-06T06:54:47.774Z,1.9
2023-03-06T06:55:48.699Z,1.9
2023-03-06T06:56:49.661Z,1.9
2023-03-06T06:57:53.322Z,1.8
2023-03-06T06:58:57.406Z,1.9
2023-03-06T06:59:55.680Z,1.8
2023-03-06T07:00:56.715Z,1.8
2023-03-06T07:01:57.792Z,1.8
2023-03-06T07:02:58.714Z,1.8
2023-03-06T07:03:59.713Z,1.8
2023-03-06T07:05:04.470Z,1.9
2023-03-06T07:06:01.674Z,1.8
2023-03-06T07:07:02.745Z,1.8
2023-03-06T07:08:03.769Z,1.9
2023-03-06T07:09:04.699Z,1.9
2023-03-06T07:10:05.781Z,2
2023-03-06T07:11:06.683Z,2
2023-03-06T07:12:07.732Z,2
2023-03-06T07:13:08.713Z,2.1
2023-03-06T07:14:09.694Z,1.9
2023-03-06T07:15:10.715Z,1.9
2023-03-06T07:16:12.291Z,2
2023-03-06T07:17:13.714Z,2.1
2023-03-06T07:18:14.679Z,2.2
2023-03-06T07:19:15.693Z,2.2
2023-03-06T07:20:16.759Z,2.3
2023-03-06T07:21:17.675Z,2.4
2023-03-06T07:22:18.715Z,2.5
2023-03-06T07:23:19.780Z,2.4
2023-03-06T07:24:20.714Z,2.5
2023-03-06T07:25:21.720Z,2.5
2023-03-06T07:26:22.714Z,2.5
2023-03-06T07:27:23.942Z,2.4
2023-03-06T07:28:24.715Z,2.3
2023-03-06T07:29:25.775Z,2.4
2023-03-06T07:30:26.700Z,2.4
2023-03-06T07:31:27.719Z,2.5
2023-03-06T07:32:28.776Z,2.5
2023-03-06T07:33:29.757Z,2.6
2023-03-06T07:34:30.717Z,2.6
2023-03-06T07:35:31.864Z,2.7
2023-03-06T07:36:32.722Z,2.8
2023-03-06T07:37:33.670Z,2.8
2023-03-06T07:38:34.760Z,2.7
2023-03-06T07:39:35.731Z,2.6
2023-03-06T07:40:36.696Z,2.6
2023-03-06T07:41:37.760Z,2.6
2023-03-06T07:42:38.699Z,2.6
2023-03-06T07:43:39.715Z,2.7
2023-03-06T07:44:40.699Z,2.8
2023-03-06T07:45:41.707Z,2.8
2023-03-06T07:46:42.739Z,2.9
2023-03-06T07:47:43.715Z,2.9
2023-03-06T07:48:44.861Z,2.8
2023-03-06T07:49:45.778Z,2.8
2023-03-06T07:50:46.724Z,2.9
2023-03-06T07:51:47.721Z,3
2023-03-06T07:52:48.718Z,3.1
2023-03-06T07:53:49.769Z,3.1
2023-03-06T07:54:50.760Z,3.2
2023-03-06T07:55:51.734Z,3.3
2023-03-06T07:56:52.799Z,3.3
2023-03-06T07:57:53.803Z,3.4
2023-03-06T07:58:56.075Z,3.4
2023-03-06T07:59:55.741Z,3.3
2023-03-06T08:00:56.760Z,3.1
2023-03-06T08:01:57.701Z,3.2
2023-03-06T08:02:58.861Z,3.1
2023-03-06T08:03:59.709Z,3
2023-03-06T08:05:00.784Z,3.1
2023-03-06T08:06:01.761Z,3
2023-03-06T08:07:02.765Z,3
2023-03-06T08:08:03.700Z,3
2023-03-06T08:09:04.764Z,3
2023-03-06T08:10:05.800Z,2.9
2023-03-06T08:11:06.789Z,2.9
2023-03-06T08:12:07.787Z,2.9
2023-03-06T08:13:08.743Z,2.8
2023-03-06T08:14:09.718Z,2.8
2023-03-06T08:15:10.711Z,2.9
2023-03-06T08:16:11.770Z,2.9
2023-03-06T08:17:12.778Z,2.7
2023-03-06T08:18:13.737Z,2.6
2023-03-06T08:19:14.690Z,2.5
2023-03-06T08:20:15.777Z,2.5
2023-03-06T08:21:16.744Z,2.5
2023-03-06T08:22:17.738Z,2.6
2023-03-06T08:23:18.760Z,2.7
2023-03-06T08:24:19.732Z,2.8
2023-03-06T08:25:20.776Z,2.8
2023-03-06T08:26:21.742Z,2.8
2023-03-06T08:27:22.737Z,2.8
2023-03-06T08:28:23.777Z,2.7
2023-03-06T08:29:24.753Z,2.7
2023-03-06T08:30:25.727Z,2.7
2023-03-06T08:31:26.805Z,2.8
2023-03-06T08:32:27.774Z,2.9
2023-03-06T08:33:28.774Z,2.9
2023-03-06T08:34:29.718Z,3
2023-03-06T08:35:30.759Z,3.1
2023-03-06T08:36:31.761Z,3.1
2023-03-06T08:37:32.812Z,3.2
2023-03-06T08:38:33.786Z,3.2
2023-03-06T08:39:34.784Z,3.2
2023-03-06T08:40:35.734Z,3.3
2023-03-06T08:41:36.779Z,3.3
2023-03-06T08:42:37.813Z,3.3
2023-03-06T08:43:38.763Z,3.3
2023-03-06T08:44:39.820Z,3.2
2023-03-06T08:45:40.870Z,3.2
2023-03-06T08:46:41.763Z,3.2
2023-03-06T08:47:42.743Z,3.1
2023-03-06T08:48:43.736Z,3
2023-03-06T08:49:44.735Z,3
2023-03-06T08:50:45.764Z,3
2023-03-06T08:51:46.775Z,3
2023-03-06T08:52:47.800Z,3
2023-03-06T08:53:48.756Z,3.1
2023-03-06T08:54:49.799Z,3.3
2023-03-06T08:55:50.834Z,3.4
2023-03-06T08:56:51.742Z,3.4
2023-03-06T08:57:52.771Z,3.4
2023-03-06T08:58:53.720Z,3.4
2023-03-06T08:59:54.752Z,3.5
2023-03-06T09:00:55.869Z,3.6
2023-03-06T09:01:56.768Z,3.3
2023-03-06T09:02:57.776Z,3.3
2023-03-06T09:03:58.754Z,3.3
2023-03-06T09:04:59.797Z,3.4
2023-03-06T09:06:00.773Z,3.5
2023-03-06T09:07:01.737Z,3.6
2023-03-06T09:08:02.768Z,3.7
2023-03-06T09:09:03.772Z,3.7
2023-03-06T09:10:04.826Z,3.7
2023-03-06T09:11:05.776Z,3.8
2023-03-06T09:12:06.759Z,3.8
2023-03-06T09:13:07.742Z,3.8
2023-03-06T09:14:08.756Z,3.8
2023-03-06T09:15:09.721Z,3.8
2023-03-06T09:16:10.824Z,3.8
2023-03-06T09:17:11.757Z,3.9
2023-03-06T09:18:12.748Z,3.9
2023-03-06T09:19:13.774Z,3.8
2023-03-06T09:20:14.804Z,3.6
2023-03-06T09:21:15.794Z,3.5
2023-03-06T09:22:16.779Z,3.3
2023-03-06T09:23:17.795Z,3.3
2023-03-06T09:24:18.785Z,3.3
2023-03-06T09:25:19.751Z,3.3
2023-03-06T09:26:20.895Z,3.2
2023-03-06T09:27:21.766Z,3.1
2023-03-06T09:28:22.743Z,3.2
2023-03-06T09:29:23.826Z,3.2
2023-03-06T09:30:24.777Z,3.3
2023-03-06T09:31:25.785Z,3.3
2023-03-06T09:32:26.882Z,3.3
2023-03-06T09:33:27.819Z,3.3
2023-03-06T09:34:28.818Z,3.4
2023-03-06T09:35:29.864Z,3.4
2023-03-06T09:36:30.794Z,3.4
2023-03-06T09:37:31.707Z,3.3
2023-03-06T09:38:32.836Z,3.4
2023-03-06T09:39:33.839Z,3.4
2023-03-06T09:40:34.761Z,3.5
2023-03-06T09:41:35.706Z,3.6
2023-03-06T09:42:37.056Z,3.7
2023-03-06T09:43:37.785Z,3.9
2023-03-06T09:44:38.805Z,4
2023-03-06T09:45:39.926Z,3.9
2023-03-06T09:46:40.748Z,3.9
2023-03-06T09:47:41.815Z,3.9
2023-03-06T09:48:42.802Z,4
2023-03-06T09:49:43.783Z,4.1
2023-03-06T09:50:44.813Z,4.3
2023-03-06T09:51:45.815Z,4.3
2023-03-06T09:52:46.795Z,4.4
2023-03-06T09:53:47.796Z,4.5
2023-03-06T09:54:48.811Z,4.6
2023-03-06T09:55:49.783Z,4.7
2023-03-06T09:56:50.802Z,4.9
2023-03-06T09:57:52.329Z,4.9
2023-03-06T09:58:52.764Z,4.8
2023-03-06T09:59:53.805Z,4.8
2023-03-06T10:00:54.773Z,4.9
2023-03-06T10:01:55.871Z,5
2023-03-06T10:02:56.955Z,4.9
2023-03-06T10:03:57.742Z,4.9
2023-03-06T10:04:58.878Z,5
2023-03-06T10:06:02.255Z,5
2023-03-06T10:07:00.836Z,4.9
2023-03-06T10:08:01.780Z,4.8
2023-03-06T10:09:02.785Z,4.8
2023-03-06T10:10:03.819Z,4.7
2023-03-06T10:11:04.856Z,4.8
2023-03-06T10:12:05.812Z,4.8
2023-03-06T10:13:06.773Z,4.8
2023-03-06T10:14:07.755Z,4.7
2023-03-06T10:15:08.832Z,4.7
2023-03-06T10:16:09.903Z,4.6
2023-03-06T10:17:10.801Z,4.4
2023-03-06T10:18:11.781Z,4.4
2023-03-06T10:19:12.789Z,4.4
2023-03-06T10:20:13.797Z,4.3
2023-03-06T10:21:19.212Z,4.4
2023-03-06T10:22:15.808Z,4.4
2023-03-06T10:23:16.818Z,4.5
2023-03-06T10:24:17.796Z,4.5
2023-03-06T10:25:18.796Z,4.5
2023-03-06T10:26:20.006Z,4.4
2023-03-06T10:27:20.788Z,4.3
2023-03-06T10:28:21.905Z,4.3
2023-03-06T10:29:22.796Z,4.2
2023-03-06T10:30:23.795Z,4.2
2023-03-06T10:31:24.898Z,4.2
2023-03-06T10:32:25.830Z,4.3
2023-03-06T10:33:26.845Z,4.5
2023-03-06T10:34:27.858Z,4.6
2023-03-06T10:35:30.613Z,4.7
2023-03-06T10:36:29.793Z,4.8
2023-03-06T10:37:32.298Z,4.8
2023-03-06T10:38:31.804Z,4.8
2023-03-06T10:39:32.751Z,4.9
2023-03-06T10:40:33.802Z,4.9
2023-03-06T10:41:34.791Z,5
2023-03-06T10:42:35.797Z,5.1
2023-03-06T10:43:36.834Z,4.9
2023-03-06T10:44:37.797Z,4.8
2023-03-06T10:45:48.817Z,4.8
2023-03-06T10:46:39.920Z,4.8
2023-03-06T10:47:40.797Z,4.9
2023-03-06T10:48:42.405Z,4.9
2023-03-06T10:49:42.796Z,5.1
2023-03-06T10:50:43.745Z,5.1
2023-03-06T10:51:44.822Z,5
2023-03-06T10:52:45.820Z,5
2023-03-06T10:53:46.846Z,5
2023-03-06T10:54:47.818Z,5
2023-03-06T10:55:48.807Z,5
2023-03-06T10:56:50.019Z,5
2023-03-06T10:57:50.836Z,4.9
2023-03-06T10:58:51.802Z,4.8
2023-03-06T10:59:52.817Z,4.9
2023-03-06T11:00:53.864Z,5
2023-03-06T11:01:54.935Z,4.8
2023-03-06T11:02:55.858Z,4.8
2023-03-06T11:03:56.855Z,4.9
2023-03-06T11:04:57.790Z,5.1
2023-03-06T11:05:58.856Z,5.2
2023-03-06T11:06:59.820Z,5.2
2023-03-06T11:08:00.812Z,5.3
2023-03-06T11:09:01.846Z,5.3
2023-03-06T11:10:02.799Z,5.3
2023-03-06T11:11:03.842Z,5.3
2023-03-06T11:12:04.860Z,5.4
2023-03-06T11:13:05.810Z,5.4
2023-03-06T11:14:06.777Z,5.4
2023-03-06T11:15:07.861Z,5.4
2023-03-06T11:16:08.823Z,5.4
2023-03-06T11:17:09.896Z,5.5
2023-03-06T11:18:10.858Z,5.4
2023-03-06T11:19:11.797Z,5.5
2023-03-06T11:20:12.837Z,5.6
2023-03-06T11:21:13.826Z,5.7
2023-03-06T11:22:14.817Z,5.7
2023-03-06T11:23:15.779Z,5.7
2023-03-06T11:24:16.778Z,5.7
2023-03-06T11:25:17.795Z,5.7
2023-03-06T11:26:18.779Z,5.8
2023-03-06T11:27:20.038Z,5.9
2023-03-06T11:28:20.869Z,6
2023-03-06T11:29:21.842Z,6.1
2023-03-06T11:30:22.865Z,6.1
2023-03-06T11:31:23.980Z,6.1
2023-03-06T11:32:24.947Z,6.3
2023-03-06T11:33:25.856Z,6.4
2023-03-06T11:34:26.814Z,6.4
2023-03-06T11:35:27.852Z,6.3
2023-03-06T11:36:28.813Z,6.2
2023-03-06T11:37:29.796Z,6.2
2023-03-06T11:38:30.877Z,6.1
2023-03-06T11:39:31.812Z,6.1
2023-03-06T11:40:32.912Z,6
2023-03-06T11:41:33.831Z,6
2023-03-06T11:42:34.883Z,5.9
2023-03-06T11:43:35.853Z,6
2023-03-06T11:44:36.831Z,6
2023-03-06T11:45:37.892Z,6
2023-03-06T11:46:38.954Z,6
2023-03-06T11:47:39.890Z,6
2023-03-06T11:48:40.924Z,6.1
2023-03-06T11:49:41.812Z,6.2
2023-03-06T11:50:42.879Z,6.3
2023-03-06T11:51:43.832Z,6.4
2023-03-06T11:52:44.809Z,6.2
2023-03-06T11:53:45.872Z,6
2023-03-06T11:54:49.854Z,6
2023-03-06T11:55:50.838Z,5.9
2023-03-06T11:56:51.825Z,5.8
2023-03-06T11:57:52.889Z,5.9
2023-03-06T11:58:53.876Z,5.9
2023-03-06T11:59:54.814Z,5.9
2023-03-06T12:00:55.838Z,5.9
2023-03-06T12:01:56.893Z,5.8
2023-03-06T12:02:57.904Z,5.5
2023-03-06T12:03:58.833Z,5.4
2023-03-06T12:04:59.923Z,5.5
2023-03-06T12:06:00.875Z,5.6
2023-03-06T12:07:01.856Z,5.6
2023-03-06T12:08:02.836Z,5.5
2023-03-06T12:09:03.885Z,5.4
2023-03-06T12:11:05.823Z,5.5
2023-03-06T12:12:06.844Z,5.7
2023-03-06T12:13:07.862Z,5.8
2023-03-06T12:14:08.817Z,5.9
2023-03-06T12:15:09.833Z,6
2023-03-06T12:16:10.844Z,5.9
2023-03-06T12:17:11.856Z,6
2023-03-06T12:18:12.839Z,5.9
2023-03-06T12:19:13.855Z,5.8
2023-03-06T12:20:14.995Z,5.5
2023-03-06T12:21:15.743Z,5.3
2023-03-06T12:22:16.853Z,5.4
2023-03-06T12:23:17.815Z,5.4
2023-03-06T12:24:18.809Z,5.4
2023-03-06T12:25:19.816Z,5.4
2023-03-06T12:26:20.853Z,5.3
2023-03-06T12:27:21.814Z,5.2
2023-03-06T12:28:23.024Z,5.1
2023-03-06T12:29:23.886Z,5
2023-03-06T12:30:24.854Z,5.1
2023-03-06T12:31:25.949Z,5.1
2023-03-06T12:32:26.904Z,5.1
2023-03-06T12:33:27.857Z,5.1
2023-03-06T12:34:28.895Z,5.1
2023-03-06T12:35:29.893Z,5.2
2023-03-06T12:36:30.881Z,5.3
2023-03-06T12:37:31.838Z,5.2
2023-03-06T12:38:32.834Z,5.1
2023-03-06T12:39:33.903Z,5
2023-03-06T12:40:34.893Z,4.9
2023-03-06T12:41:35.916Z,4.9
2023-03-06T12:42:36.858Z,4.8
2023-03-06T12:43:40.011Z,4.8
2023-03-06T12:44:38.834Z,4.6
2023-03-06T12:45:39.917Z,4.6
2023-03-06T12:46:40.876Z,4.6
2023-03-06T12:47:41.810Z,4.8
2023-03-06T12:48:42.857Z,4.8
2023-03-06T12:49:43.861Z,4.9
2023-03-06T12:50:44.894Z,4.8
2023-03-06T12:51:45.837Z,4.3
2023-03-06T12:52:46.882Z,4.1
2023-03-06T12:53:47.884Z,4.2
2023-03-06T12:54:48.877Z,4.2
2023-03-06T12:55:49.835Z,4.2
2023-03-06T12:56:50.907Z,4
2023-03-06T12:57:51.878Z,3.6
2023-03-06T12:58:52.989Z,3.4
2023-03-06T12:59:53.890Z,3.5
2023-03-06T13:00:58.685Z,3.3
2023-03-06T13:01:55.918Z,3.3
2023-03-06T13:02:56.815Z,3.5
2023-03-06T13:03:57.940Z,3.3
2023-03-06T13:04:58.835Z,3.3
2023-03-06T13:05:59.861Z,3.3
2023-03-06T13:07:00.870Z,3.3
2023-03-06T13:08:01.876Z,3.2
2023-03-06T13:09:02.882Z,3
2023-03-06T13:10:03.877Z,3.1
2023-03-06T13:11:04.838Z,3
2023-03-06T13:12:05.866Z,3.1
2023-03-06T13:13:06.873Z,3.1
2023-03-06T13:14:07.934Z,3
2023-03-06T13:15:08.888Z,3
2023-03-06T13:16:09.856Z,3
2023-03-06T13:17:10.924Z,2.9
2023-03-06T13:18:11.839Z,2.9
2023-03-06T13:19:12.891Z,2.8
2023-03-06T13:20:13.927Z,2.6
2023-03-06T13:21:15.036Z,2.6
2023-03-06T13:22:15.854Z,2.7
2023-03-06T13:23:16.904Z,2.7
2023-03-06T13:24:17.831Z,2.7
2023-03-06T13:25:18.858Z,2.5
2023-03-06T13:26:19.849Z,2.4
2023-03-06T13:27:20.879Z,2.3
2023-03-06T13:28:21.886Z,2.2
2023-03-06T13:29:22.915Z,2
2023-03-06T13:30:23.909Z,1.9
2023-03-06T13:31:27.428Z,1.9
2023-03-06T13:32:25.940Z,1.9
2023-03-06T13:33:26.852Z,1.8
2023-03-06T13:34:27.889Z,1.8
2023-03-06T13:35:28.897Z,2
2023-03-06T13:36:29.877Z,2.2
2023-03-06T13:37:30.898Z,2.3
2023-03-06T13:38:31.976Z,2.2
2023-03-06T13:39:33.873Z,2.2
2023-03-06T13:40:34.879Z,2.1
2023-03-06T13:41:35.883Z,2
2023-03-06T13:42:36.887Z,2
2023-03-06T13:43:37.859Z,1.8
2023-03-06T13:44:38.934Z,1.7
2023-03-06T13:45:39.909Z,1.7
2023-03-06T13:46:40.861Z,1.5
2023-03-06T13:48:06.729Z,1.4
2023-03-06T13:48:45.008Z,1.5
2023-03-06T13:49:43.887Z,1.6
2023-03-06T13:50:44.929Z,1.6
2023-03-06T13:51:45.880Z,1.7
2023-03-06T13:52:46.872Z,1.9
2023-03-06T13:53:47.910Z,2.1
2023-03-06T13:54:48.884Z,2.3
2023-03-06T13:55:49.891Z,2.3
2023-03-06T13:56:50.879Z,2.5
2023-03-06T13:57:51.888Z,2.7
2023-03-06T13:58:52.987Z,2.8
2023-03-06T14:00:03.005Z,3
2023-03-06T14:00:54.873Z,3.1
2023-03-06T14:01:55.852Z,3.2
2023-03-06T14:02:56.963Z,3.3
2023-03-06T14:03:57.925Z,3.4
2023-03-06T14:04:58.860Z,3.5
2023-03-06T14:05:59.906Z,3.7
2023-03-06T14:07:00.878Z,3.8
2023-03-06T14:08:01.870Z,4
2023-03-06T14:09:02.959Z,4.1
2023-03-06T14:10:03.869Z,4.2
2023-03-06T14:11:04.906Z,4.3
2023-03-06T14:12:05.863Z,4.4
2023-03-06T14:13:06.870Z,4.5